Time;durP1;ratioP1;P1;durP2;ratioP2;P2;SDS_P1;SDS_P2;PMS_P1;PMS_P2;Temp;Humidity;BMP_temperature;BMP_pressure;BME280_temperature;BME280_humidity;BME280_pressure;Samples;Min_cycle;Max_cycle;Signal;HPM_P1;HPM_P2
2023/06/25 00:02:11;;;;;;;8.27;4.53;;;13.90;99.90;;;;;;5011730;28;20548;-63
2023/06/25 00:04:38;;;;;;;5.07;3.67;;;13.90;99.90;;;;;;5010930;28;20037;-62
2023/06/25 00:07:05;;;;;;;5.18;3.90;;;13.90;99.90;;;;;;5012243;28;20054;-62
2023/06/25 00:09:32;;;;;;;6.05;3.90;;;13.90;99.90;;;;;;5012027;28;20073;-61
2023/06/25 00:11:59;;;;;;;9.02;4.75;;;13.90;99.90;;;;;;5012022;28;20399;-62
2023/06/25 00:14:25;;;;;;;6.03;4.10;;;13.90;99.90;;;;;;5010377;28;20045;-62
2023/06/25 00:16:57;;;;;;;6.18;4.15;;;13.90;99.90;;;;;;5012416;28;20046;-62
2023/06/25 00:19:26;;;;;;;6.90;4.10;;;13.90;99.90;;;;;;5011546;28;20137;-62
2023/06/25 00:21:53;;;;;;;7.10;4.13;;;13.80;99.90;;;;;;5011669;28;20042;-62
2023/06/25 00:24:20;;;;;;;6.57;4.00;;;13.70;99.90;;;;;;5011470;28;20133;-62
2023/06/25 00:26:47;;;;;;;6.07;4.28;;;13.70;99.90;;;;;;5012240;28;20042;-61
2023/06/25 00:29:13;;;;;;;5.40;3.80;;;13.60;99.90;;;;;;5011086;28;20137;-62
2023/06/25 00:31:41;;;;;;;6.63;4.32;;;13.50;99.90;;;;;;5010299;28;20396;-62
2023/06/25 00:34:09;;;;;;;8.10;4.65;;;13.50;99.90;;;;;;5027788;28;20046;-62
2023/06/25 00:36:36;;;;;;;;;;;13.50;99.90;;;;;;5010801;28;20569;-62
2023/06/25 00:39:04;;;;;;;6.05;3.88;;;13.50;99.90;;;;;;5009808;28;19921;-62
2023/06/25 00:41:31;;;;;;;7.50;3.85;;;13.50;99.90;;;;;;5011204;28;20037;-62
2023/06/25 00:43:58;;;;;;;7.60;4.53;;;13.50;99.90;;;;;;5010540;28;20038;-62
2023/06/25 00:46:25;;;;;;;6.57;3.97;;;13.50;99.90;;;;;;5012099;28;20448;-62
2023/06/25 00:48:52;;;;;;;7.20;3.88;;;13.50;99.90;;;;;;5010098;28;20038;-62
2023/06/25 00:51:21;;;;;;;6.40;4.03;;;13.50;99.90;;;;;;5029156;28;20546;-62
2023/06/25 00:53:49;;;;;;;5.93;3.90;;;13.50;99.90;;;;;;5025207;28;20498;-61
2023/06/25 00:56:16;;;;;;;6.57;4.60;;;13.40;99.90;;;;;;5026378;28;20053;-62
2023/06/25 00:58:43;;;;;;;;;;;13.40;99.90;;;;;;5010423;28;20038;-62
2023/06/25 01:01:26;;;;;;;7.47;4.07;;;13.40;99.90;;;;;;5026191;28;19932;-62
2023/06/25 01:03:57;;;;;;;4.88;3.97;;;13.40;99.90;;;;;;5009893;28;20042;-62
2023/06/25 01:06:33;;;;;;;6.35;3.97;;;13.30;99.90;;;;;;5003841;28;20037;-62
2023/06/25 01:09:01;;;;;;;5.97;4.10;;;13.30;99.90;;;;;;5008630;28;20038;-62
2023/06/25 01:11:29;;;;;;;7.65;4.55;;;13.20;99.90;;;;;;5005910;28;20561;-62
2023/06/25 01:13:56;;;;;;;5.72;3.95;;;13.20;99.90;;;;;;5025880;28;20104;-61
2023/06/25 01:16:23;;;;;;;7.35;4.50;;;13.20;99.90;;;;;;5009789;28;20041;-62
2023/06/25 01:18:50;;;;;;;7.35;4.63;;;13.10;99.90;;;;;;5025941;28;20052;-62
2023/06/25 01:21:31;;;;;;;6.75;4.20;;;13.10;99.90;;;;;;5009997;28;20048;-61
2023/06/25 01:23:59;;;;;;;6.75;4.20;;;13.10;99.90;;;;;;5008364;28;20501;-61
2023/06/25 01:26:26;;;;;;;8.63;4.22;;;13.00;99.90;;;;;;5029361;28;20716;-63
2023/06/25 01:28:55;;;;;;;9.13;4.95;;;12.90;99.90;;;;;;5010728;28;20494;-62
2023/06/25 01:31:25;;;;;;;6.95;4.38;;;12.90;99.90;;;;;;5009549;28;20084;-62
2023/06/25 01:33:52;;;;;;;6.93;4.30;;;12.90;99.90;;;;;;5011041;28;20113;-62
2023/06/25 01:36:19;;;;;;;7.43;4.10;;;12.90;99.90;;;;;;5009589;28;20383;-63
2023/06/25 01:38:46;;;;;;;5.32;3.90;;;13.00;99.90;;;;;;5009788;28;20048;-62
2023/06/25 01:41:13;;;;;;;8.13;4.63;;;12.90;99.90;;;;;;5027215;28;20044;-63
2023/06/25 01:43:41;;;;;;;7.38;4.75;;;12.90;99.90;;;;;;5008294;28;20056;-62
2023/06/25 01:46:09;;;;;;;8.07;4.15;;;12.90;99.90;;;;;;5009630;28;20038;-62
2023/06/25 01:48:36;;;;;;;5.28;3.80;;;12.80;99.90;;;;;;5033922;28;20077;-63
2023/06/25 01:51:03;;;;;;;7.97;4.35;;;12.80;99.90;;;;;;5025883;28;20402;-62
2023/06/25 01:53:30;;;;;;;6.53;4.35;;;12.70;99.90;;;;;;5010077;28;20498;-63
2023/06/25 01:55:56;;;;;;;7.70;4.47;;;12.60;99.90;;;;;;5025571;28;20046;-62
2023/06/25 01:58:23;;;;;;;6.60;4.35;;;12.60;99.90;;;;;;5026046;28;20052;-61
2023/06/25 02:00:50;;;;;;;7.47;4.10;;;12.60;99.90;;;;;;5030164;28;20046;-61
2023/06/25 02:03:17;;;;;;;7.47;4.25;;;12.60;99.90;;;;;;5009085;28;20129;-62
2023/06/25 02:05:44;;;;;;;6.85;4.68;;;12.60;99.90;;;;;;5010242;28;20030;-62
2023/06/25 02:08:10;;;;;;;7.60;4.70;;;12.50;99.90;;;;;;5025380;28;20430;-62
2023/06/25 02:10:38;;;;;;;10.05;4.35;;;12.50;99.90;;;;;;5011049;28;20040;-62
2023/06/25 02:13:06;;;;;;;6.35;4.40;;;12.50;99.90;;;;;;5023456;28;20050;-63
2023/06/25 02:15:33;;;;;;;7.78;4.85;;;12.50;99.90;;;;;;5009059;28;20048;-62
2023/06/25 02:18:00;;;;;;;9.07;4.60;;;12.50;99.90;;;;;;5040437;28;20503;-62
2023/06/25 02:20:27;;;;;;;7.28;4.47;;;12.40;99.90;;;;;;5025845;28;20469;-62
2023/06/25 02:22:53;;;;;;;8.40;4.57;;;12.40;99.90;;;;;;5036797;28;20065;-62
2023/06/25 02:25:20;;;;;;;7.00;4.07;;;12.40;99.90;;;;;;5036686;28;20038;-61
2023/06/25 02:27:47;;;;;;;6.93;4.20;;;12.40;99.90;;;;;;5011204;28;20731;-61
2023/06/25 02:30:14;;;;;;;6.80;4.35;;;12.40;99.90;;;;;;5014388;28;20053;-62
2023/06/25 02:32:40;;;;;;;7.25;4.28;;;12.30;99.90;;;;;;5012346;28;20399;-61
2023/06/25 02:35:08;;;;;;;7.38;4.60;;;12.40;99.90;;;;;;5005274;28;20466;-62
2023/06/25 02:37:35;;;;;;;7.30;4.35;;;12.30;99.90;;;;;;5010617;28;20090;-61
2023/06/25 02:40:02;;;;;;;7.93;4.25;;;12.40;99.90;;;;;;5014092;28;20121;-62
2023/06/25 02:42:29;;;;;;;10.05;5.15;;;12.30;99.90;;;;;;5027906;28;20514;-62
2023/06/25 02:44:56;;;;;;;8.55;4.45;;;12.60;99.90;;;;;;5013508;28;20038;-62
2023/06/25 02:47:23;;;;;;;7.57;4.72;;;12.30;99.90;;;;;;5028838;28;20073;-62
2023/06/25 02:49:50;;;;;;;8.20;4.57;;;12.30;99.90;;;;;;5012253;28;20502;-62
2023/06/25 02:52:18;;;;;;;9.35;4.82;;;12.20;99.90;;;;;;5010627;28;20108;-62
2023/06/25 02:54:44;;;;;;;7.28;4.32;;;12.20;99.90;;;;;;5014023;28;20509;-61
2023/06/25 02:57:11;;;;;;;7.32;4.55;;;12.20;99.90;;;;;;5012640;28;20053;-62
2023/06/25 02:59:38;;;;;;;9.00;4.43;;;12.10;99.90;;;;;;5036038;28;20052;-61
2023/06/25 03:02:05;;;;;;;5.93;4.35;;;12.10;99.90;;;;;;5011144;28;20038;-62
2023/06/25 03:04:32;;;;;;;6.15;4.20;;;12.00;99.90;;;;;;5011183;28;20057;-61
2023/06/25 03:06:59;;;;;;;;;;;12.10;99.90;;;;;;5037175;28;20133;-61
2023/06/25 03:09:26;;;;;;;8.35;4.35;;;12.10;99.90;;;;;;5028814;28;19975;-61
2023/06/25 03:11:53;;;;;;;;;;;12.10;99.90;;;;;;5028201;28;20038;-62
2023/06/25 03:14:20;;;;;;;6.47;4.13;;;12.10;99.90;;;;;;5027844;28;19927;-61
2023/06/25 03:17:02;;;;;;;8.73;4.60;;;12.10;99.90;;;;;;5011657;28;20469;-62
2023/06/25 03:19:29;;;;;;;6.45;4.55;;;12.10;99.90;;;;;;5012607;28;20124;-62
2023/06/25 03:21:55;;;;;;;7.55;4.55;;;12.10;99.90;;;;;;5032433;28;20038;-62
2023/06/25 03:24:22;;;;;;;8.15;4.80;;;12.00;99.90;;;;;;5011615;28;20037;-61
2023/06/25 03:26:51;;;;;;;7.55;4.75;;;12.10;99.90;;;;;;5028325;28;20490;-62
2023/06/25 03:29:18;;;;;;;8.18;5.10;;;12.00;99.90;;;;;;5026886;28;20061;-61
2023/06/25 03:31:46;;;;;;;6.25;4.47;;;12.00;99.90;;;;;;5027975;28;20064;-62
2023/06/25 03:34:16;;;;;;;7.68;4.88;;;11.90;99.90;;;;;;5003537;28;20046;-61
2023/06/25 03:36:44;;;;;;;7.88;5.13;;;11.90;99.90;;;;;;5036583;28;20076;-61
2023/06/25 03:39:10;;;;;;;7.47;4.57;;;11.90;99.90;;;;;;5010969;28;20050;-62
2023/06/25 03:41:37;;;;;;;9.68;4.78;;;11.80;99.90;;;;;;5011692;28;20038;-62
2023/06/25 03:44:04;;;;;;;7.80;4.80;;;11.80;99.90;;;;;;5011422;28;20441;-61
2023/06/25 03:46:32;;;;;;;6.85;4.65;;;11.90;99.90;;;;;;5027517;28;20065;-61
2023/06/25 03:48:59;;;;;;;6.88;4.20;;;11.90;99.90;;;;;;5034785;28;20048;-61
2023/06/25 03:51:30;;;;;;;6.38;4.03;;;11.90;99.90;;;;;;5029161;28;20041;-62
2023/06/25 03:53:57;;;;;;;8.73;4.13;;;11.90;99.90;;;;;;5011046;28;20046;-62
2023/06/25 03:56:23;;;;;;;6.60;4.32;;;12.00;99.90;;;;;;5011698;28;20049;-62
2023/06/25 03:58:50;;;;;;;8.95;5.40;;;12.00;99.90;;;;;;5006728;28;20399;-61
2023/06/25 04:01:17;;;;;;;6.38;4.50;;;12.00;99.90;;;;;;5028409;28;20120;-62
2023/06/25 04:03:44;;;;;;;9.95;5.25;;;11.90;99.90;;;;;;5026940;28;20049;-61
2023/06/25 04:06:12;;;;;;;9.18;5.30;;;12.00;99.90;;;;;;5010458;28;20116;-61
2023/06/25 04:08:41;;;;;;;14.18;5.18;;;12.00;99.90;;;;;;5010825;28;20053;-62
2023/06/25 04:11:09;;;;;;;8.60;5.00;;;12.00;99.90;;;;;;5043330;28;20132;-62
2023/06/25 04:13:36;;;;;;;8.80;5.22;;;12.00;99.90;;;;;;5008944;28;20913;-61
2023/06/25 04:16:07;;;;;;;10.15;5.45;;;12.00;99.90;;;;;;5027943;28;20089;-60
2023/06/25 04:18:37;;;;;;;10.48;6.00;;;12.00;99.90;;;;;;5009373;28;20434;-62
2023/06/25 04:21:04;;;;;;;13.43;6.25;;;12.10;99.90;;;;;;5027609;28;20137;-62
2023/06/25 04:23:33;;;;;;;10.10;5.35;;;12.10;99.90;;;;;;5009263;28;20494;-61
2023/06/25 04:25:59;;;;;;;8.35;5.13;;;12.20;99.90;;;;;;5033953;28;20491;-61
2023/06/25 04:28:26;;;;;;;9.25;4.88;;;12.30;99.90;;;;;;5032608;28;20097;-62
2023/06/25 04:30:54;;;;;;;7.63;4.78;;;12.30;99.90;;;;;;5026082;28;20042;-60
2023/06/25 04:33:20;;;;;;;9.93;4.88;;;12.40;99.90;;;;;;5032166;28;20076;-61
2023/06/25 04:35:47;;;;;;;8.55;4.80;;;12.50;99.90;;;;;;5008715;28;20050;-62
2023/06/25 04:38:15;;;;;;;11.00;6.95;;;12.50;99.90;;;;;;5002145;28;20041;-62
2023/06/25 04:40:42;;;;;;;8.10;5.65;;;12.50;99.90;;;;;;5010225;28;20048;-62
2023/06/25 04:43:08;;;;;;;11.40;6.10;;;12.60;99.90;;;;;;5026659;28;20049;-62
2023/06/25 04:45:35;;;;;;;8.85;5.80;;;12.70;99.90;;;;;;5009046;28;20081;-62
2023/06/25 04:48:03;;;;;;;10.77;5.28;;;12.70;99.90;;;;;;5026731;28;20088;-62
2023/06/25 04:50:31;;;;;;;8.23;5.15;;;12.80;99.90;;;;;;5010312;28;20100;-60
2023/06/25 04:52:58;;;;;;;8.23;5.20;;;12.90;99.90;;;;;;5026153;28;20049;-61
2023/06/25 04:55:25;;;;;;;8.07;5.10;;;13.00;99.90;;;;;;5034667;28;20092;-62
2023/06/25 04:57:52;;;;;;;9.43;5.40;;;13.10;99.90;;;;;;5011312;28;20056;-62
2023/06/25 05:00:18;;;;;;;9.50;5.60;;;13.10;99.90;;;;;;5010557;28;20056;-61
2023/06/25 05:02:45;;;;;;;9.20;5.20;;;13.20;99.90;;;;;;5011192;28;20049;-62
2023/06/25 05:05:12;;;;;;;8.93;5.28;;;13.20;99.90;;;;;;5010950;28;20088;-61
2023/06/25 05:07:39;;;;;;;8.68;5.68;;;13.30;99.90;;;;;;5009039;28;20046;-62
2023/06/25 05:10:06;;;;;;;7.30;4.85;;;13.30;99.90;;;;;;5011218;28;20510;-62
2023/06/25 05:12:33;;;;;;;8.98;4.88;;;13.30;99.90;;;;;;5010998;28;20034;-62
2023/06/25 05:15:00;;;;;;;11.40;5.07;;;13.40;99.90;;;;;;5011290;28;20046;-62
2023/06/25 05:17:27;;;;;;;;;;;13.50;99.90;;;;;;5011227;28;20446;-62
2023/06/25 05:19:54;;;;;;;11.50;5.93;;;13.40;99.90;;;;;;5006232;28;21237;-62
2023/06/25 05:22:20;;;;;;;9.02;5.47;;;13.60;99.90;;;;;;5010760;28;20042;-61
2023/06/25 05:24:47;;;;;;;11.25;5.28;;;13.60;99.90;;;;;;5010638;28;20046;-62
2023/06/25 05:27:14;;;;;;;7.78;4.70;;;13.60;99.90;;;;;;5009808;28;20042;-62
2023/06/25 05:29:41;;;;;;;9.48;5.10;;;13.70;99.90;;;;;;5008383;28;20045;-61
2023/06/25 05:32:08;;;;;;;7.60;5.03;;;13.70;99.90;;;;;;5009383;28;20038;-60
2023/06/25 05:34:35;;;;;;;8.48;5.38;;;13.80;99.90;;;;;;5009904;28;20038;-62
2023/06/25 05:37:02;;;;;;;8.40;5.43;;;14.10;99.90;;;;;;5010813;28;20089;-61
2023/06/25 05:39:29;;;;;;;8.07;5.20;;;14.10;99.90;;;;;;5009225;28;20049;-62
2023/06/25 05:41:57;;;;;;;11.00;5.40;;;14.10;99.90;;;;;;5010467;28;20042;-62
2023/06/25 05:44:27;;;;;;;9.45;5.90;;;14.10;99.90;;;;;;5010290;28;20417;-62
2023/06/25 05:46:54;;;;;;;10.70;5.20;;;14.20;99.90;;;;;;5011269;28;20045;-62
2023/06/25 05:49:21;;;;;;;8.65;5.18;;;14.20;99.90;;;;;;5009617;28;20030;-62
2023/06/25 05:51:48;;;;;;;7.57;5.13;;;14.20;99.90;;;;;;5011202;28;20042;-61
2023/06/25 05:54:15;;;;;;;8.00;5.18;;;14.20;99.90;;;;;;5009521;28;20038;-61
2023/06/25 05:56:42;;;;;;;8.95;5.57;;;14.30;99.90;;;;;;5013835;28;20525;-62
2023/06/25 05:59:08;;;;;;;7.90;5.28;;;14.40;99.90;;;;;;5013925;28;20045;-62
2023/06/25 06:01:37;;;;;;;7.72;5.10;;;14.50;99.90;;;;;;5014118;28;20042;-62
2023/06/25 06:04:05;;;;;;;8.55;5.30;;;14.50;99.90;;;;;;5014334;28;20691;-62
2023/06/25 06:06:32;;;;;;;8.18;5.13;;;14.50;99.90;;;;;;5014313;28;20046;-62
2023/06/25 06:08:59;;;;;;;10.05;6.05;;;14.60;99.90;;;;;;5014129;28;20056;-61
2023/06/25 06:11:27;;;;;;;9.90;5.82;;;14.70;99.90;;;;;;5014521;28;20478;-62
2023/06/25 06:13:53;;;;;;;8.15;5.10;;;14.80;99.90;;;;;;5013451;28;20042;-62
2023/06/25 06:16:23;;;;;;;8.50;5.72;;;14.90;99.90;;;;;;5015325;28;20880;-61
2023/06/25 06:18:50;;;;;;;8.13;5.07;;;14.90;99.90;;;;;;5013535;28;20037;-62
2023/06/25 06:21:16;;;;;;;10.65;5.15;;;15.00;99.90;;;;;;5014049;28;20045;-62
2023/06/25 06:23:43;;;;;;;8.07;5.03;;;15.10;99.90;;;;;;5012602;28;20088;-62
2023/06/25 06:26:10;;;;;;;6.95;5.28;;;15.20;99.90;;;;;;5014868;28;20050;-62
2023/06/25 06:28:37;;;;;;;8.75;4.95;;;15.30;99.90;;;;;;5012637;28;20068;-62
2023/06/25 06:31:03;;;;;;;7.95;4.95;;;15.50;99.90;;;;;;5014728;28;20045;-62
2023/06/25 06:33:31;;;;;;;8.18;5.22;;;15.60;99.90;;;;;;5012244;28;20107;-62
2023/06/25 06:35:59;;;;;;;7.32;4.93;;;15.70;99.90;;;;;;5014221;28;20042;-62
2023/06/25 06:38:26;;;;;;;8.18;4.78;;;15.80;99.90;;;;;;5012710;28;20042;-61
2023/06/25 06:40:53;;;;;;;8.50;5.03;;;15.90;99.90;;;;;;5014486;28;20069;-62
2023/06/25 06:43:20;;;;;;;6.80;4.38;;;16.00;99.90;;;;;;5012053;28;20048;-63
2023/06/25 06:45:46;;;;;;;9.77;4.72;;;16.20;99.90;;;;;;5014735;28;20042;-61
2023/06/25 06:48:13;;;;;;;5.82;4.28;;;16.40;99.90;;;;;;5013050;28;20399;-62
2023/06/25 06:50:40;;;;;;;7.35;5.15;;;16.50;99.90;;;;;;5013480;28;20491;-62
2023/06/25 06:53:07;;;;;;;8.40;4.50;;;16.60;99.90;;;;;;5012994;28;20053;-62
2023/06/25 06:55:33;;;;;;;8.32;5.35;;;16.80;99.90;;;;;;5014207;28;20056;-62
2023/06/25 06:58:00;;;;;;;6.25;4.35;;;16.90;99.90;;;;;;5013404;28;20425;-62
2023/06/25 07:00:27;;;;;;;7.20;4.93;;;17.10;99.90;;;;;;5012626;28;20054;-62
2023/06/25 07:02:56;;;;;;;6.78;4.55;;;17.30;99.90;;;;;;5013336;28;20050;-62
2023/06/25 07:05:23;;;;;;;6.55;4.72;;;17.40;99.90;;;;;;5005868;28;20050;-62
2023/06/25 07:07:51;;;;;;;7.15;5.00;;;17.50;99.90;;;;;;5012294;28;20042;-63
2023/06/25 07:10:17;;;;;;;6.45;4.88;;;17.60;99.90;;;;;;5013076;28;20533;-63
2023/06/25 07:12:44;;;;;;;9.15;5.05;;;17.70;99.90;;;;;;5011865;28;20065;-62
2023/06/25 07:15:11;;;;;;;8.07;4.18;;;17.80;99.90;;;;;;5013718;28;20046;-62
2023/06/25 07:17:38;;;;;;;8.88;4.63;;;17.90;99.90;;;;;;5011845;28;20046;-63
2023/06/25 07:20:06;;;;;;;6.38;4.65;;;18.00;99.90;;;;;;5013454;28;20060;-62
2023/06/25 07:22:33;;;;;;;8.93;4.85;;;18.10;99.90;;;;;;5012463;28;20053;-62
2023/06/25 07:25:00;;;;;;;7.00;4.50;;;18.20;99.90;;;;;;5012143;28;20037;-62
2023/06/25 07:27:27;;;;;;;;;;;18.50;99.90;;;;;;5013515;28;20121;-63
2023/06/25 07:29:53;;;;;;;6.45;4.63;;;18.60;99.90;;;;;;5010847;28;19922;-63
2023/06/25 07:32:20;;;;;;;5.70;4.40;;;18.80;99.90;;;;;;5008550;28;20057;-62
2023/06/25 07:34:47;;;;;;;6.07;4.38;;;18.90;99.90;;;;;;5012141;28;20052;-62
2023/06/25 07:37:14;;;;;;;7.00;5.00;;;19.00;99.90;;;;;;5011682;28;20033;-61
2023/06/25 07:39:41;;;;;;;6.28;4.43;;;19.10;99.90;;;;;;5012777;28;20033;-62
2023/06/25 07:42:08;;;;;;;7.72;4.82;;;19.20;99.90;;;;;;5011532;28;20049;-62
2023/06/25 07:44:35;;;;;;;6.13;4.45;;;19.20;99.90;;;;;;5011656;28;20404;-62
2023/06/25 07:47:05;;;;;;;4.90;3.80;;;19.30;99.90;;;;;;5012930;28;20106;-62
2023/06/25 07:49:31;;;;;;;6.97;4.55;;;19.40;99.90;;;;;;5012029;28;20046;-62
2023/06/25 07:51:58;;;;;;;6.47;4.47;;;19.50;99.90;;;;;;5008762;28;20049;-62
2023/06/25 07:54:25;;;;;;;5.88;4.38;;;19.60;99.90;;;;;;5011988;28;20042;-61
2023/06/25 07:56:52;;;;;;;8.18;4.60;;;19.70;99.90;;;;;;5008470;28;20046;-62
2023/06/25 07:59:18;;;;;;;7.75;4.60;;;19.70;99.90;;;;;;5012071;28;20042;-61
2023/06/25 08:01:45;;;;;;;5.15;4.05;;;19.90;99.90;;;;;;5011893;28;20352;-61
2023/06/25 08:04:12;;;;;;;5.60;3.78;;;20.10;99.90;;;;;;5012076;28;20049;-62
2023/06/25 08:06:40;;;;;;;6.80;4.38;;;20.30;99.90;;;;;;5011660;28;20092;-62
2023/06/25 08:09:06;;;;;;;6.18;3.75;;;20.50;99.90;;;;;;5011949;28;20103;-62
2023/06/25 08:11:33;;;;;;;6.22;3.97;;;20.60;99.90;;;;;;5011134;28;20044;-59
2023/06/25 08:14:00;;;;;;;5.25;3.92;;;20.60;99.90;;;;;;5012118;28;20046;-61
2023/06/25 08:16:28;;;;;;;6.45;3.88;;;20.80;99.90;;;;;;5012320;28;20042;-59
2023/06/25 08:18:55;;;;;;;6.82;3.85;;;20.90;99.90;;;;;;5011350;28;20411;-62
2023/06/25 08:21:23;;;;;;;7.10;4.50;;;21.10;99.90;;;;;;5011210;28;20050;-61
2023/06/25 08:23:49;;;;;;;;;;;21.20;99.90;;;;;;5011566;28;20375;-62
2023/06/25 08:26:16;;;;;;;5.18;3.78;;;21.30;99.90;;;;;;5011290;28;19952;-62
2023/06/25 08:28:43;;;;;;;5.82;4.18;;;21.30;99.90;;;;;;5011947;28;20045;-62
2023/06/25 08:31:10;;;;;;;7.07;4.70;;;21.40;99.90;;;;;;5011736;28;20085;-59
2023/06/25 08:33:38;;;;;;;;;;;21.50;99.90;;;;;;5011014;28;20100;-61
2023/06/25 08:36:05;;;;;;;5.82;3.72;;;21.70;99.90;;;;;;5012271;28;19921;-61
2023/06/25 08:38:32;;;;;;;5.28;4.03;;;21.80;99.90;;;;;;5010361;28;20120;-62
2023/06/25 08:40:59;;;;;;;;;;;21.90;99.90;;;;;;5012734;28;20065;-61
2023/06/25 08:43:26;;;;;;;9.15;3.97;;;22.10;99.90;;;;;;5008383;28;19929;-61
2023/06/25 08:45:53;;;;;;;6.55;4.30;;;22.10;99.90;;;;;;5012215;28;20041;-62
2023/06/25 08:48:23;;;;;;;6.13;4.13;;;22.20;99.90;;;;;;5010428;28;20046;-62
2023/06/25 08:50:55;;;;;;;5.53;3.78;;;22.40;99.90;;;;;;5011781;28;20619;-62
2023/06/25 08:53:27;;;;;;;5.35;3.65;;;22.40;99.90;;;;;;5010168;28;20041;-62
2023/06/25 08:55:58;;;;;;;4.78;4.10;;;22.60;99.90;;;;;;5007739;28;20040;-61
2023/06/25 08:58:25;;;;;;;5.10;4.07;;;22.50;99.90;;;;;;5010429;28;20038;-62
2023/06/25 09:00:52;;;;;;;;;;;22.70;99.90;;;;;;5010697;28;20495;-62
2023/06/25 09:03:19;;;;;;;6.18;4.18;;;22.90;99.90;;;;;;5010773;28;20087;-61
2023/06/25 09:05:55;;;;;;;5.50;4.20;;;23.10;99.90;;;;;;5011314;28;20053;-61
2023/06/25 09:08:26;;;;;;;5.55;4.40;;;23.20;99.90;;;;;;5010083;28;20046;-62
2023/06/25 09:10:55;;;;;;;6.85;4.43;;;23.10;99.90;;;;;;5011438;28;20042;-61
2023/06/25 09:13:26;;;;;;;7.28;4.30;;;23.30;99.90;;;;;;5009534;28;20049;-62
2023/06/25 09:15:59;;;;;;;7.57;4.18;;;23.60;99.90;;;;;;5011226;28;20407;-62
2023/06/25 09:18:26;;;;;;;6.28;4.20;;;23.70;99.90;;;;;;5009547;28;20065;-62
2023/06/25 09:20:53;;;;;;;8.93;4.78;;;23.80;99.90;;;;;;5010586;28;20034;-62
2023/06/25 09:23:24;;;;;;;7.28;5.00;;;23.80;99.70;;;;;;5010985;28;20046;-62
2023/06/25 09:25:52;;;;;;;7.43;4.18;;;23.80;99.90;;;;;;5010120;28;20487;-62
2023/06/25 09:28:19;;;;;;;5.20;4.40;;;23.70;99.90;;;;;;5009461;28;20056;-61
2023/06/25 09:30:46;;;;;;;7.60;4.60;;;23.80;99.90;;;;;;5008916;28;20038;-61
2023/06/25 09:33:13;;;;;;;;;;;23.80;99.90;;;;;;5010787;28;20034;-61
2023/06/25 09:35:40;;;;;;;6.60;4.45;;;23.90;98.90;;;;;;5009654;28;19957;-62
2023/06/25 09:38:07;;;;;;;;;;;24.00;99.00;;;;;;5011556;28;20041;-62
2023/06/25 09:40:34;;;;;;;6.50;4.35;;;24.00;99.30;;;;;;5010231;28;19925;-62
2023/06/25 09:43:05;;;;;;;5.90;4.55;;;24.00;98.70;;;;;;5010174;28;20042;-61
2023/06/25 09:45:34;;;;;;;6.93;4.78;;;24.20;99.90;;;;;;5002920;28;20042;-60
2023/06/25 09:48:01;;;;;;;7.15;4.65;;;24.30;99.70;;;;;;5010449;28;20046;-61
2023/06/25 09:50:35;;;;;;;6.82;4.78;;;24.40;99.70;;;;;;5009992;28;20156;-62
2023/06/25 09:53:06;;;;;;;6.57;5.22;;;24.30;98.40;;;;;;5010518;28;20380;-62
2023/06/25 09:55:36;;;;;;;5.22;4.18;;;24.40;98.50;;;;;;5011068;28;20495;-61
2023/06/25 09:58:04;;;;;;;5.50;4.43;;;24.60;99.10;;;;;;5009658;28;20046;-62
2023/06/25 10:00:33;;;;;;;6.78;4.38;;;24.60;98.40;;;;;;5010514;28;20046;-61
2023/06/25 10:03:02;;;;;;;5.63;4.63;;;24.60;96.50;;;;;;5009346;28;20573;-62
2023/06/25 10:05:31;;;;;;;6.22;4.65;;;24.80;96.60;;;;;;5010385;28;20072;-62
2023/06/25 10:07:58;;;;;;;7.18;4.50;;;24.90;97.10;;;;;;5010587;28;20049;-62
2023/06/25 10:10:29;;;;;;;5.80;4.63;;;25.10;96.70;;;;;;5009557;28;20056;-62
2023/06/25 10:12:56;;;;;;;8.82;5.32;;;25.20;97.00;;;;;;5010549;28;20034;-62
2023/06/25 10:15:35;;;;;;;;;;;24.90;96.90;;;;;;5010177;28;20038;-62
2023/06/25 10:18:05;;;;;;;6.53;4.05;;;24.90;97.60;;;;;;5007878;28;19956;-62
2023/06/25 10:20:35;;;;;;;6.03;4.53;;;25.10;98.40;;;;;;5008735;28;20061;-62
2023/06/25 10:23:13;;;;;;;5.40;4.13;;;25.30;97.90;;;;;;5005338;28;20082;-62
2023/06/25 10:25:50;;;;;;;;;;;25.40;95.90;;;;;;5011303;28;20462;-62
2023/06/25 10:28:17;;;;;;;7.55;4.57;;;25.70;95.80;;;;;;5007818;28;20423;-62
2023/06/25 10:30:48;;;;;;;8.00;4.93;;;25.70;95.00;;;;;;5010702;28;20046;-62
2023/06/25 10:33:17;;;;;;;6.18;4.80;;;25.60;96.00;;;;;;5007770;28;20100;-61
2023/06/25 10:35:46;;;;;;;6.47;4.75;;;25.70;94.80;;;;;;5010859;28;20104;-62
2023/06/25 10:38:13;;;;;;;5.30;4.47;;;25.70;94.80;;;;;;5008663;28;20034;-62
2023/06/25 10:40:40;;;;;;;;;;;25.80;93.90;;;;;;5010862;28;20061;-60
2023/06/25 10:43:07;;;;;;;7.60;5.32;;;25.70;93.20;;;;;;5011394;28;19922;-62
2023/06/25 10:45:34;;;;;;;7.03;5.05;;;25.90;94.00;;;;;;5012830;28;20618;-61
2023/06/25 10:48:10;;;;;;;6.35;5.07;;;26.00;94.20;;;;;;5010489;28;20045;-62
2023/06/25 10:50:37;;;;;;;8.80;5.63;;;26.10;93.80;;;;;;5012936;28;20160;-62
2023/06/25 10:53:08;;;;;;;;;;;26.20;93.70;;;;;;5009510;28;20073;-62
2023/06/25 10:55:37;;;;;;;6.47;4.95;;;26.10;93.30;;;;;;5013000;28;19933;-63
2023/06/25 10:58:05;;;;;;;6.68;4.80;;;26.30;92.00;;;;;;5006680;28;20053;-61
2023/06/25 11:00:32;;;;;;;6.32;4.97;;;26.40;93.10;;;;;;5013603;28;20046;-62
2023/06/25 11:02:59;;;;;;;7.75;4.80;;;26.50;92.40;;;;;;5012173;28;20052;-62
2023/06/25 11:05:38;;;;;;;6.32;5.35;;;26.40;90.50;;;;;;5009613;28;20117;-61
2023/06/25 11:08:06;;;;;;;8.20;5.70;;;26.50;91.60;;;;;;5011891;28;20097;-62
2023/06/25 11:10:34;;;;;;;8.60;5.57;;;26.60;91.80;;;;;;5009919;28;20045;-62
2023/06/25 11:13:01;;;;;;;7.75;5.55;;;26.60;92.00;;;;;;5011869;28;20042;-62
2023/06/25 11:15:34;;;;;;;6.05;5.38;;;26.60;90.20;;;;;;5008531;28;20042;-61
2023/06/25 11:18:03;;;;;;;6.57;5.20;;;26.70;91.40;;;;;;5011343;28;20042;-62
2023/06/25 11:20:32;;;;;;;8.43;5.88;;;26.80;91.00;;;;;;5010052;28;20038;-61
2023/06/25 11:23:01;;;;;;;9.90;5.57;;;26.90;92.50;;;;;;5012050;28;20100;-62
2023/06/25 11:25:30;;;;;;;7.15;5.57;;;26.90;90.20;;;;;;5007422;28;20048;-61
2023/06/25 11:28:07;;;;;;;6.85;5.15;;;26.90;90.60;;;;;;5011862;28;20034;-62
2023/06/25 11:30:34;;;;;;;7.75;5.35;;;27.10;91.90;;;;;;5010584;28;20040;-62
2023/06/25 11:33:08;;;;;;;6.47;4.90;;;27.10;91.50;;;;;;5011633;28;20429;-62
2023/06/25 11:35:35;;;;;;;7.50;6.05;;;27.10;91.50;;;;;;5011870;28;20042;-62
2023/06/25 11:38:02;;;;;;;7.57;5.10;;;27.10;92.50;;;;;;5009695;28;20122;-62
2023/06/25 11:40:30;;;;;;;;;;;27.30;92.40;;;;;;5012356;28;20041;-62
2023/06/25 11:42:57;;;;;;;7.38;5.43;;;27.30;91.40;;;;;;5011648;28;19932;-62
2023/06/25 11:45:24;;;;;;;7.95;5.32;;;27.40;92.60;;;;;;5009154;28;20037;-61
2023/06/25 11:47:55;;;;;;;;;;;27.40;92.50;;;;;;5013852;28;20046;-61
2023/06/25 11:50:23;;;;;;;8.43;5.28;;;27.20;92.40;;;;;;5010872;28;20386;-62
2023/06/25 11:52:54;;;;;;;9.82;5.10;;;27.20;94.50;;;;;;5011570;28;20041;-62
2023/06/25 11:55:21;;;;;;;7.05;5.60;;;27.20;93.30;;;;;;5011722;28;20057;-62
2023/06/25 11:57:48;;;;;;;6.15;4.97;;;27.30;91.80;;;;;;5011529;28;20050;-62
2023/06/25 12:00:15;;;;;;;;;;;27.30;93.30;;;;;;5012413;28;20383;-61
2023/06/25 12:02:42;;;;;;;8.13;5.32;;;27.30;92.40;;;;;;5011559;28;20312;-62
2023/06/25 12:05:15;;;;;;;6.78;5.50;;;27.20;91.30;;;;;;5011907;28;20871;-62
2023/06/25 12:07:42;;;;;;;6.80;5.50;;;27.20;91.80;;;;;;5011413;28;20034;-62
2023/06/25 12:10:09;;;;;;;6.95;5.72;;;27.20;91.70;;;;;;5012168;28;20046;-61
2023/06/25 12:12:36;;;;;;;10.48;5.72;;;27.20;90.80;;;;;;5011527;28;20045;-61
2023/06/25 12:15:03;;;;;;;10.52;5.88;;;27.10;90.80;;;;;;5010963;28;20078;-62
2023/06/25 12:17:30;;;;;;;7.05;5.57;;;26.90;91.30;;;;;;5009420;28;20041;-61
2023/06/25 12:19:57;;;;;;;7.10;5.65;;;27.00;92.00;;;;;;5010141;28;20049;-61
2023/06/25 12:22:24;;;;;;;;;;;27.10;90.80;;;;;;5007268;28;20038;-60
2023/06/25 12:24:50;;;;;;;10.43;6.13;;;27.20;90.70;;;;;;5005054;28;19928;-60
2023/06/25 12:27:18;;;;;;;8.02;5.95;;;27.30;93.00;;;;;;5007750;28;20048;-58
2023/06/25 12:29:45;;;;;;;6.65;5.32;;;27.30;91.90;;;;;;5009262;28;20107;-60
2023/06/25 12:32:12;;;;;;;7.60;6.07;;;27.30;91.50;;;;;;5008810;28;20041;-59
2023/06/25 12:34:39;;;;;;;8.35;6.28;;;27.30;91.50;;;;;;5009502;28;20080;-62
2023/06/25 12:37:06;;;;;;;10.13;6.05;;;27.30;90.60;;;;;;5009451;28;20042;-61
2023/06/25 12:39:32;;;;;;;9.05;6.15;;;27.40;90.60;;;;;;5009316;28;20038;-59
2023/06/25 12:41:59;;;;;;;10.15;6.35;;;27.30;89.10;;;;;;5011539;28;20590;-61
2023/06/25 12:44:26;;;;;;;10.75;6.78;;;27.40;90.00;;;;;;5009966;28;20081;-61
2023/06/25 12:46:53;;;;;;;8.20;6.00;;;27.60;91.90;;;;;;5011924;28;20046;-61
2023/06/25 12:49:19;;;;;;;8.80;6.10;;;27.70;90.70;;;;;;5010276;28;20046;-60
2023/06/25 12:51:46;;;;;;;10.25;6.45;;;27.80;89.50;;;;;;5011527;28;20436;-62
2023/06/25 12:54:16;;;;;;;8.68;6.18;;;27.90;88.80;;;;;;5010592;28;20053;-63